Time;durP1;ratioP1;P1;durP2;ratioP2;P2;SDS_P1;SDS_P2;PMS_P1;PMS_P2;Temp;Humidity;BMP_temperature;BMP_pressure;BME280_temperature;BME280_humidity;BME280_pressure;Samples;Min_cycle;Max_cycle;Signal;HPM_P1;HPM_P2
2022/01/21 00:01:28;;;;;;;14.82;2.85;;;;;;;;;;5105481;28;20049;-66
2022/01/21 00:03:55;;;;;;;30.80;3.40;;;;;;;;;;5104351;28;20036;-66
2022/01/21 00:06:21;;;;;;;13.15;2.60;;;;;;;;;;5072673;28;20101;-66
2022/01/21 00:08:48;;;;;;;17.95;2.80;;;;;;;;;;5105082;28;20588;-66
2022/01/21 00:11:15;;;;;;;15.82;3.00;;;;;;;;;;5071934;28;20119;-66
2022/01/21 00:13:41;;;;;;;19.42;2.80;;;;;;;;;;5072416;28;20047;-66
2022/01/21 00:16:08;;;;;;;13.13;1.90;;;;;;;;;;5105185;28;20063;-66
2022/01/21 00:18:36;;;;;;;15.73;2.00;;;;;;;;;;5071923;28;20044;-66
2022/01/21 00:32:10;;;;;;;10.65;1.88;;;;;;;;;;5070188;28;20051;-66
2022/01/21 00:34:36;;;;;;;14.05;2.33;;;;;;;;;;5071561;28;20124;-66
2022/01/21 00:37:03;;;;;;;17.48;2.53;;;;;;;;;;5072141;28;20044;-66
2022/01/21 00:39:31;;;;;;;11.35;2.30;;;;;;;;;;5071451;28;20067;-66
2022/01/21 00:44:31;;;;;;;11.68;2.28;;;;;;;;;;5070135;28;20441;-66
2022/01/21 00:46:57;;;;;;;11.48;1.67;;;;;;;;;;5070129;28;20102;-66
2022/01/21 00:49:23;;;;;;;12.60;1.70;;;;;;;;;;5071969;28;20098;-66
2022/01/21 00:51:49;;;;;;;11.80;1.80;;;;;;;;;;5071636;28;20502;-66
2022/01/21 00:54:15;;;;;;;27.38;2.83;;;;;;;;;;5071182;28;20036;-66
2022/01/21 00:56:42;;;;;;;12.57;1.70;;;;;;;;;;5070359;28;20620;-66
2022/01/21 00:59:08;;;;;;;18.05;1.95;;;;;;;;;;5071819;28;20050;-66
2022/01/21 01:01:34;;;;;;;13.70;1.75;;;;;;;;;;5070936;28;20037;-66
2022/01/21 01:04:00;;;;;;;13.50;2.85;;;;;;;;;;5071651;28;20384;-66
2022/01/21 01:06:26;;;;;;;16.02;2.20;;;;;;;;;;5071713;28;20461;-66
2022/01/21 01:08:53;;;;;;;10.38;1.88;;;;;;;;;;5071054;28;20110;-66
2022/01/21 01:11:28;;;;;;;13.25;1.80;;;;;;;;;;5070038;28;20411;-66
2022/01/21 01:22:12;;;;;;;9.23;2.33;;;;;;;;;;5071719;28;20083;-66
2022/01/21 01:27:41;;;;;;;11.05;1.65;;;;;;;;;;5069816;28;20396;-66
2022/01/21 01:30:07;;;;;;;9.43;1.38;;;;;;;;;;5071272;28;20782;-66
2022/01/21 01:32:34;;;;;;;11.27;1.48;;;;;;;;;;5070539;28;20040;-66
2022/01/21 01:35:00;;;;;;;8.93;1.45;;;;;;;;;;5103705;28;20494;-66
2022/01/21 01:40:27;;;;;;;6.55;1.00;;;;;;;;;;5102973;28;20059;-66
2022/01/21 01:49:23;;;;;;;8.95;1.60;;;;;;;;;;5103565;28;20572;-66
2022/01/21 01:51:19;;;;;;;9.40;1.65;;;;;;;;;;5075187;28;20054;-66
2022/01/21 01:53:51;;;;;;;13.27;1.58;;;;;;;;;;5074530;28;20091;-66
2022/01/21 01:56:19;;;;;;;9.45;1.40;;;;;;;;;;5075155;28;20051;-66
2022/01/21 01:58:46;;;;;;;14.45;1.60;;;;;;;;;;5074799;28;20079;-66
2022/01/21 02:01:12;;;;;;;13.90;1.80;;;;;;;;;;5074542;28;20047;-66
2022/01/21 02:03:38;;;;;;;13.65;1.63;;;;;;;;;;5074597;28;20455;-66
2022/01/21 02:06:04;;;;;;;10.30;1.63;;;;;;;;;;5107390;28;20040;-66
2022/01/21 02:08:31;;;;;;;7.22;1.27;;;;;;;;;;5074164;28;20037;-66
2022/01/21 02:10:57;;;;;;;12.95;1.80;;;;;;;;;;5074851;28;20062;-66
2022/01/21 02:13:29;;;;;;;10.25;1.67;;;;;;;;;;5074686;28;20371;-66
2022/01/21 02:16:08;;;;;;;12.43;1.58;;;;;;;;;;5073854;28;20047;-66
2022/01/21 02:21:36;;;;;;;10.68;1.90;;;;;;;;;;5074435;28;20090;-66
2022/01/21 02:24:15;;;;;;;9.40;1.30;;;;;;;;;;5073658;28;20126;-66
2022/01/21 02:26:41;;;;;;;9.27;1.88;;;;;;;;;;5061717;28;20049;-66
2022/01/21 02:29:09;;;;;;;10.05;1.13;;;;;;;;;;5054541;28;20060;-66
2022/01/21 02:31:36;;;;;;;12.27;1.50;;;;;;;;;;5053873;28;20395;-66
2022/01/21 02:34:02;;;;;;;10.13;1.98;;;;;;;;;;5052713;28;20140;-66
2022/01/21 02:36:29;;;;;;;7.88;1.20;;;;;;;;;;5053250;28;20120;-66
2022/01/21 02:38:55;;;;;;;8.82;1.20;;;;;;;;;;5052403;28;20159;-66
2022/01/21 02:41:22;;;;;;;10.95;1.48;;;;;;;;;;5054234;28;20067;-66
2022/01/21 02:43:48;;;;;;;12.77;1.70;;;;;;;;;;5053074;28;20055;-66
2022/01/21 02:46:15;;;;;;;13.48;1.95;;;;;;;;;;5052077;28;20048;-66
2022/01/21 02:48:42;;;;;;;8.55;1.27;;;;;;;;;;5054109;28;20049;-66
2022/01/21 02:51:09;;;;;;;6.80;1.13;;;;;;;;;;5054047;28;20041;-66
2022/01/21 02:56:06;;;;;;;7.40;1.02;;;;;;;;;;5085975;28;20537;-66
2022/01/21 02:58:32;;;;;;;4.65;1.13;;;;;;;;;;5054040;28;20085;-66
2022/01/21 03:00:59;;;;;;;10.38;1.55;;;;;;;;;;5053405;28;20411;-66
2022/01/21 03:03:25;;;;;;;4.68;1.38;;;;;;;;;;5052532;28;20130;-66
2022/01/21 03:05:51;;;;;;;6.75;1.30;;;;;;;;;;5053914;28;20037;-66
2022/01/21 03:08:17;;;;;;;9.13;0.60;;;;;;;;;;5053229;28;20037;-66
2022/01/21 03:10:44;;;;;;;8.75;1.15;;;;;;;;;;5053359;28;20049;-66
2022/01/21 03:13:10;;;;;;;4.95;2.42;;;;;;;;;;5053644;28;20456;-66
2022/01/21 03:15:36;;;;;;;7.20;0.98;;;;;;;;;;5053020;28;20503;-66
2022/01/21 03:18:02;;;;;;;10.63;1.58;;;;;;;;;;5052152;28;20040;-66
2022/01/21 03:20:28;;;;;;;7.65;1.30;;;;;;;;;;5053277;28;20068;-66
2022/01/21 03:22:54;;;;;;;11.82;1.92;;;;;;;;;;5052678;28;20132;-66
2022/01/21 03:25:20;;;;;;;12.50;1.48;;;;;;;;;;5054733;28;20044;-66
2022/01/21 03:27:46;;;;;;;7.63;1.52;;;;;;;;;;5073044;28;20056;-66
2022/01/21 03:30:12;;;;;;;11.50;1.30;;;;;;;;;;5072393;28;20049;-66
2022/01/21 03:32:38;;;;;;;7.40;1.00;;;;;;;;;;5073459;28;20040;-66
2022/01/21 03:35:05;;;;;;;5.55;0.90;;;;;;;;;;5105875;28;20486;-66
2022/01/21 03:37:31;;;;;;;4.85;0.82;;;;;;;;;;5072614;28;20078;-66
2022/01/21 03:39:57;;;;;;;3.22;1.15;;;;;;;;;;5073258;28;20079;-66
2022/01/21 03:42:23;;;;;;;9.23;1.38;;;;;;;;;;5073186;28;20161;-66
2022/01/21 03:44:49;;;;;;;6.85;1.05;;;;;;;;;;5104651;28;20066;-66
2022/01/21 03:47:15;;;;;;;6.47;1.23;;;;;;;;;;5072839;28;20049;-66
2022/01/21 03:49:51;;;;;;;11.57;1.20;;;;;;;;;;5105313;28;20040;-66
2022/01/21 03:52:17;;;;;;;4.55;0.90;;;;;;;;;;5072125;28;20040;-66
2022/01/21 03:54:43;;;;;;;6.70;1.00;;;;;;;;;;5073018;28;20064;-66
2022/01/21 03:57:09;;;;;;;9.35;1.15;;;;;;;;;;5072930;28;20040;-66
2022/01/21 03:59:35;;;;;;;6.80;0.98;;;;;;;;;;5104472;28;20044;-66
2022/01/21 04:02:05;;;;;;;7.25;1.00;;;;;;;;;;5105297;28;20045;-66
2022/01/21 04:04:32;;;;;;;14.43;1.40;;;;;;;;;;5072370;28;20080;-66
2022/01/21 04:06:58;;;;;;;7.38;1.25;;;;;;;;;;5072115;28;20041;-66
2022/01/21 04:09:24;;;;;;;10.85;1.27;;;;;;;;;;5071956;28;20132;-66
2022/01/21 04:11:51;;;;;;;10.40;1.17;;;;;;;;;;5072419;28;20048;-66
2022/01/21 04:14:17;;;;;;;12.20;1.05;;;;;;;;;;5071645;28;20620;-66
2022/01/21 04:16:43;;;;;;;5.70;0.93;;;;;;;;;;5072281;28;20127;-66
2022/01/21 04:19:09;;;;;;;8.20;1.33;;;;;;;;;;5072375;28;20070;-66
2022/01/21 04:21:35;;;;;;;10.00;1.77;;;;;;;;;;5071891;28;20040;-66
2022/01/21 04:24:02;;;;;;;12.20;1.48;;;;;;;;;;5104823;28;20044;-66
2022/01/21 04:26:29;;;;;;;14.15;1.60;;;;;;;;;;5096931;28;20060;-66
2022/01/21 04:28:55;;;;;;;10.57;1.45;;;;;;;;;;5071254;28;20502;-66
2022/01/21 04:31:21;;;;;;;14.63;2.08;;;;;;;;;;5070503;28;20040;-66
2022/01/21 04:33:47;;;;;;;10.93;1.65;;;;;;;;;;5072068;28;20102;-66
2022/01/21 04:36:13;;;;;;;9.35;1.77;;;;;;;;;;5071581;28;20493;-66
2022/01/21 04:38:39;;;;;;;11.38;1.40;;;;;;;;;;5072055;28;20474;-66
2022/01/21 04:41:24;;;;;;;9.02;1.30;;;;;;;;;;5072019;28;20075;-66
2022/01/21 04:49:40;;;;;;;12.68;1.70;;;;;;;;;;5012427;28;20056;-66
2022/01/21 04:52:06;;;;;;;8.38;1.63;;;;;;;;;;5028407;28;20520;-66
2022/01/21 04:54:33;;;;;;;6.68;1.33;;;;;;;;;;5049032;28;20041;-66
2022/01/21 04:57:00;;;;;;;11.00;1.70;;;;;;;;;;5071538;28;20119;-66
2022/01/21 04:59:27;;;;;;;8.82;1.52;;;;;;;;;;5071369;28;20360;-66
2022/01/21 05:01:53;;;;;;;10.77;1.65;;;;;;;;;;5072013;28;20046;-66
2022/01/21 05:04:20;;;;;;;12.35;1.52;;;;;;;;;;5071351;28;20727;-66
2022/01/21 05:06:47;;;;;;;8.60;2.10;;;;;;;;;;5071156;28;20040;-66
2022/01/21 05:09:16;;;;;;;11.80;2.35;;;;;;;;;;5071262;28;20106;-66
2022/01/21 05:11:42;;;;;;;16.80;2.33;;;;;;;;;;5070184;28;20120;-66
2022/01/21 05:16:39;;;;;;;19.63;1.55;;;;;;;;;;5071585;28;20140;-66
2022/01/21 05:19:14;;;;;;;9.35;2.05;;;;;;;;;;5071532;28;20393;-66
2022/01/21 05:21:40;;;;;;;12.57;1.30;;;;;;;;;;5070997;28;20041;-66
2022/01/21 05:24:07;;;;;;;11.00;2.35;;;;;;;;;;5070242;28;20124;-66
2022/01/21 05:26:37;;;;;;;12.70;1.70;;;;;;;;;;5069757;28;20425;-66
2022/01/21 05:29:04;;;;;;;10.23;1.75;;;;;;;;;;5070905;28;20094;-66
2022/01/21 05:31:30;;;;;;;14.20;1.85;;;;;;;;;;5103735;28;20421;-66
2022/01/21 05:33:56;;;;;;;8.35;1.50;;;;;;;;;;5104005;28;20051;-66
2022/01/21 05:36:22;;;;;;;8.93;1.25;;;;;;;;;;5070809;28;20501;-66
2022/01/21 05:38:48;;;;;;;13.73;1.83;;;;;;;;;;5071381;28;20474;-66
2022/01/21 05:41:14;;;;;;;13.27;1.73;;;;;;;;;;5071482;28;20039;-66
2022/01/21 05:43:45;;;;;;;6.80;1.73;;;;;;;;;;5070473;28;20529;-66
2022/01/21 05:49:11;;;;;;;8.02;1.85;;;;;;;;;;5047173;28;20094;-66
2022/01/21 05:51:38;;;;;;;8.40;1.30;;;;;;;;;;5103166;28;20538;-66
2022/01/21 05:54:04;;;;;;;8.27;1.45;;;;;;;;;;5071164;28;20072;-66
2022/01/21 05:56:31;;;;;;;8.68;1.60;;;;;;;;;;5071245;28;20036;-66
2022/01/21 05:59:00;;;;;;;11.63;1.58;;;;;;;;;;5102832;28;20044;-66
2022/01/21 06:01:26;;;;;;;12.60;1.33;;;;;;;;;;5071177;28;20041;-66
2022/01/21 06:03:52;;;;;;;9.30;1.67;;;;;;;;;;5103454;28;20639;-66
2022/01/21 06:06:18;;;;;;;6.53;1.35;;;;;;;;;;5070490;28;20048;-66
2022/01/21 06:08:44;;;;;;;8.95;1.27;;;;;;;;;;5071061;28;20076;-66
2022/01/21 06:11:10;;;;;;;9.98;1.63;;;;;;;;;;5103257;28;20055;-66
2022/01/21 06:13:37;;;;;;;9.98;1.70;;;;;;;;;;5069952;28;20079;-66
2022/01/21 06:16:03;;;;;;;12.40;1.58;;;;;;;;;;5070801;28;20052;-66
2022/01/21 06:18:29;;;;;;;7.22;1.05;;;;;;;;;;5103143;28;20045;-66
2022/01/21 06:20:55;;;;;;;9.80;1.42;;;;;;;;;;5070497;28;20371;-66
2022/01/21 06:23:22;;;;;;;15.45;2.10;;;;;;;;;;5103045;28;20080;-66
2022/01/21 06:25:48;;;;;;;8.88;1.88;;;;;;;;;;5070604;28;20080;-66
2022/01/21 06:28:14;;;;;;;13.20;2.13;;;;;;;;;;5069970;28;20044;-66
2022/01/21 06:30:40;;;;;;;16.23;2.10;;;;;;;;;;5052310;28;20044;-66
2022/01/21 06:33:06;;;;;;;8.95;1.50;;;;;;;;;;5072134;28;20051;-66
2022/01/21 06:35:32;;;;;;;9.77;1.20;;;;;;;;;;5073589;28;20051;-66
2022/01/21 06:37:58;;;;;;;12.43;1.80;;;;;;;;;;5072820;28;20056;-66
2022/01/21 06:40:24;;;;;;;12.90;2.08;;;;;;;;;;5074009;28;20040;-66
2022/01/21 06:42:51;;;;;;;13.38;1.70;;;;;;;;;;5072007;28;20044;-66
2022/01/21 06:45:18;;;;;;;12.50;1.63;;;;;;;;;;5074170;28;20052;-66
2022/01/21 06:47:45;;;;;;;6.10;1.10;;;;;;;;;;5071390;28;20036;-64
2022/01/21 06:50:11;;;;;;;7.57;1.30;;;;;;;;;;5073316;28;20044;-63
2022/01/21 06:52:37;;;;;;;9.13;1.40;;;;;;;;;;5073962;28;20665;-63
2022/01/21 06:55:03;;;;;;;6.18;1.05;;;;;;;;;;5073306;28;20044;-64
2022/01/21 06:57:30;;;;;;;15.00;1.80;;;;;;;;;;5073195;28;20094;-64
2022/01/21 06:59:56;;;;;;;14.07;1.30;;;;;;;;;;5073504;28;20086;-64
2022/01/21 07:02:22;;;;;;;10.40;1.30;;;;;;;;;;5073554;28;20041;-65
2022/01/21 07:04:49;;;;;;;7.57;1.70;;;;;;;;;;5072773;28;20043;-65
2022/01/21 07:07:15;;;;;;;12.70;1.58;;;;;;;;;;5073381;28;20040;-65
2022/01/21 07:09:42;;;;;;;5.68;1.25;;;;;;;;;;5073278;28;20041;-65
2022/01/21 07:12:08;;;;;;;7.85;1.17;;;;;;;;;;5072882;28;20124;-64
2022/01/21 07:14:34;;;;;;;7.82;2.00;;;;;;;;;;5073152;28;20045;-64
2022/01/21 07:17:00;;;;;;;9.55;1.55;;;;;;;;;;5073185;28;20119;-64
2022/01/21 07:19:26;;;;;;;17.75;1.30;;;;;;;;;;5072454;28;20083;-64
2022/01/21 07:21:52;;;;;;;8.50;1.27;;;;;;;;;;5073260;28;20048;-64
2022/01/21 07:24:19;;;;;;;7.78;1.42;;;;;;;;;;5073003;28;20040;-66
2022/01/21 07:26:45;;;;;;;8.05;1.27;;;;;;;;;;5072039;28;20091;-67
2022/01/21 07:29:11;;;;;;;7.00;1.08;;;;;;;;;;5072759;28;20403;-65
2022/01/21 07:31:37;;;;;;;7.38;1.40;;;;;;;;;;5068311;28;20040;-65
2022/01/21 07:34:06;;;;;;;10.13;1.30;;;;;;;;;;5067597;28;20398;-65
2022/01/21 07:36:33;;;;;;;12.00;1.27;;;;;;;;;;5072112;28;20162;-65
2022/01/21 07:38:59;;;;;;;5.68;1.73;;;;;;;;;;5072241;28;20500;-66
2022/01/21 07:41:25;;;;;;;14.38;2.30;;;;;;;;;;5072074;28;20066;-67
2022/01/21 07:43:52;;;;;;;12.20;1.67;;;;;;;;;;5071573;28;20591;-66
2022/01/21 07:46:18;;;;;;;14.15;1.98;;;;;;;;;;5070637;28;20040;-65
2022/01/21 07:48:44;;;;;;;6.43;1.42;;;;;;;;;;5072156;28;20040;-66
2022/01/21 07:51:11;;;;;;;10.30;1.48;;;;;;;;;;5072440;28;20032;-65
2022/01/21 07:53:37;;;;;;;11.43;2.47;;;;;;;;;;5072391;28;20047;-65
2022/01/21 07:56:04;;;;;;;9.45;1.60;;;;;;;;;;5071914;28;20044;-64
2022/01/21 07:58:30;;;;;;;10.13;1.48;;;;;;;;;;5072379;28;20532;-66
2022/01/21 08:00:56;;;;;;;8.93;1.80;;;;;;;;;;5072428;28;20131;-65
2022/01/21 08:03:23;;;;;;;9.20;1.63;;;;;;;;;;5071597;28;20050;-65
2022/01/21 08:05:49;;;;;;;8.65;1.10;;;;;;;;;;5054143;28;20525;-66
2022/01/21 08:08:16;;;;;;;7.50;1.23;;;;;;;;;;5071920;28;20040;-65
2022/01/21 08:10:42;;;;;;;12.57;1.40;;;;;;;;;;5071037;28;20135;-65
2022/01/21 08:13:08;;;;;;;10.88;1.85;;;;;;;;;;5071849;28;20068;-64
2022/01/21 08:15:34;;;;;;;12.93;1.25;;;;;;;;;;5071495;28;20048;-64
2022/01/21 08:18:00;;;;;;;9.68;1.40;;;;;;;;;;5071112;28;20048;-65
2022/01/21 08:20:26;;;;;;;7.50;1.20;;;;;;;;;;5072213;28;20479;-64
2022/01/21 08:22:52;;;;;;;5.18;1.40;;;;;;;;;;5070114;28;20044;-63
2022/01/21 08:25:18;;;;;;;10.75;1.33;;;;;;;;;;5070289;28;20706;-65
2022/01/21 08:27:44;;;;;;;6.97;1.50;;;;;;;;;;5071721;28;20059;-65
2022/01/21 08:30:10;;;;;;;6.95;2.30;;;;;;;;;;5071524;28;20390;-65
2022/01/21 08:32:37;;;;;;;9.30;1.42;;;;;;;;;;5071031;28;20044;-62
2022/01/21 08:35:04;;;;;;;7.70;1.13;;;;;;;;;;5071485;28;20051;-64
2022/01/21 08:37:30;;;;;;;9.68;1.38;;;;;;;;;;5071036;28;20091;-63
2022/01/21 08:39:56;;;;;;;13.82;1.65;;;;;;;;;;5071206;28;20068;-64
2022/01/21 08:42:22;;;;;;;10.85;1.70;;;;;;;;;;5071045;28;20055;-64
2022/01/21 08:44:48;;;;;;;13.95;1.45;;;;;;;;;;5071471;28;20044;-63
2022/01/21 08:47:15;;;;;;;14.27;1.65;;;;;;;;;;5070707;28;20041;-64
2022/01/21 08:49:44;;;;;;;15.35;2.10;;;;;;;;;;5071033;28;20123;-65
2022/01/21 08:52:18;;;;;;;9.45;1.50;;;;;;;;;;5071448;28;20115;-65
2022/01/21 08:54:44;;;;;;;13.00;1.77;;;;;;;;;;5070190;28;20041;-65
2022/01/21 08:57:10;;;;;;;13.05;1.65;;;;;;;;;;5070860;28;20120;-65
2022/01/21 08:59:36;;;;;;;11.95;1.55;;;;;;;;;;5071276;28;20380;-65
2022/01/21 09:02:02;;;;;;;12.90;2.13;;;;;;;;;;5071164;28;20101;-65
2022/01/21 09:04:28;;;;;;;10.95;1.80;;;;;;;;;;5069623;28;20136;-64
2022/01/21 09:06:54;;;;;;;10.80;1.95;;;;;;;;;;5070011;28;20036;-64
2022/01/21 09:09:21;;;;;;;9.75;1.48;;;;;;;;;;5071244;28;20173;-65
2022/01/21 09:11:47;;;;;;;13.13;1.55;;;;;;;;;;5068007;28;20032;-65
2022/01/21 09:14:13;;;;;;;10.57;2.13;;;;;;;;;;5062008;28;20378;-66
2022/01/21 09:16:42;;;;;;;13.70;2.28;;;;;;;;;;5067922;28;20159;-66
2022/01/21 09:19:08;;;;;;;15.60;2.25;;;;;;;;;;5069866;28;20040;-67
2022/01/21 09:21:36;;;;;;;13.60;2.20;;;;;;;;;;5069699;28;20641;-65
2022/01/21 09:24:02;;;;;;;9.20;2.17;;;;;;;;;;5071220;28;20033;-65
2022/01/21 09:26:29;;;;;;;10.65;2.40;;;;;;;;;;5070183;28;20114;-65
2022/01/21 09:28:55;;;;;;;9.90;1.95;;;;;;;;;;5070787;28;20059;-65
2022/01/21 09:31:21;;;;;;;9.85;2.60;;;;;;;;;;5070792;28;20033;-63
2022/01/21 09:33:48;;;;;;;14.52;1.92;;;;;;;;;;5069501;28;20044;-66
2022/01/21 09:36:14;;;;;;;16.02;2.40;;;;;;;;;;5070869;28;20552;-66
2022/01/21 09:38:40;;;;;;;16.55;2.60;;;;;;;;;;5070296;28;20463;-67
2022/01/21 09:41:09;;;;;;;22.02;2.53;;;;;;;;;;5070132;28;20125;-66
2022/01/21 09:43:37;;;;;;;17.65;2.78;;;;;;;;;;5070601;28;20040;-65
2022/01/21 09:46:07;;;;;;;10.55;2.08;;;;;;;;;;5070850;28;20056;-65
2022/01/21 09:48:38;;;;;;;20.40;2.33;;;;;;;;;;5069856;28;20458;-65
2022/01/21 09:51:06;;;;;;;16.08;1.90;;;;;;;;;;5070706;28;20047;-64
2022/01/21 09:53:34;;;;;;;15.45;1.63;;;;;;;;;;5070780;28;20048;-64
2022/01/21 09:56:01;;;;;;;11.10;1.77;;;;;;;;;;5069930;28;20090;-64
2022/01/21 09:58:28;;;;;;;10.68;1.80;;;;;;;;;;5069825;28;20080;-64
2022/01/21 10:00:55;;;;;;;12.95;2.17;;;;;;;;;;5052769;28;20075;-64
2022/01/21 10:03:22;;;;;;;12.40;1.90;;;;;;;;;;5069863;28;20076;-65
2022/01/21 10:05:49;;;;;;;9.27;1.88;;;;;;;;;;5069810;28;20051;-65
2022/01/21 10:08:15;;;;;;;16.95;2.55;;;;;;;;;;5073819;28;20571;-64
2022/01/21 10:10:43;;;;;;;12.57;2.03;;;;;;;;;;5073586;28;20045;-64
2022/01/21 10:13:09;;;;;;;16.27;1.92;;;;;;;;;;5072277;28;20045;-64
2022/01/21 10:15:37;;;;;;;10.70;2.88;;;;;;;;;;5069537;28;20036;-65
2022/01/21 10:18:08;;;;;;;12.23;1.90;;;;;;;;;;5072831;28;20115;-64
2022/01/21 10:20:34;;;;;;;7.95;1.55;;;;;;;;;;5071471;28;20060;-66
2022/01/21 10:23:03;;;;;;;11.70;1.60;;;;;;;;;;5072293;28;20036;-66
2022/01/21 10:25:29;;;;;;;8.25;2.42;;;;;;;;;;5068971;28;20364;-65
2022/01/21 10:28:08;;;;;;;16.58;1.90;;;;;;;;;;5072301;28;20087;-65
2022/01/21 10:30:34;;;;;;;13.73;2.10;;;;;;;;;;5073778;28;20110;-63
2022/01/21 10:33:00;;;;;;;13.85;2.20;;;;;;;;;;5061084;28;20040;-64
2022/01/21 10:35:30;;;;;;;8.80;1.48;;;;;;;;;;5073762;28;20044;-64
2022/01/21 10:37:59;;;;;;;9.98;1.88;;;;;;;;;;5072708;28;20495;-64
2022/01/21 10:40:33;;;;;;;19.27;2.40;;;;;;;;;;5072240;28;20047;-64
2022/01/21 10:43:11;;;;;;;10.57;1.83;;;;;;;;;;5073440;28;20093;-64
2022/01/21 10:45:53;;;;;;;11.18;1.90;;;;;;;;;;5053435;28;20395;-64
2022/01/21 10:48:19;;;;;;;14.30;2.13;;;;;;;;;;5077403;28;20040;-63
2022/01/21 10:50:45;;;;;;;15.27;2.13;;;;;;;;;;5068442;28;20152;-61
2022/01/21 10:53:29;;;;;;;20.30;4.13;;;;;;;;;;5072049;28;20112;-61
2022/01/21 10:56:08;;;;;;;16.55;2.35;;;;;;;;;;5073484;28;20380;-63
2022/01/21 10:58:38;;;;;;;14.25;1.95;;;;;;;;;;5073887;28;20399;-63
2022/01/21 11:01:10;;;;;;;18.52;2.40;;;;;;;;;;5072101;28;20052;-65
2022/01/21 11:03:39;;;;;;;12.50;2.03;;;;;;;;;;5071711;28;20087;-65
2022/01/21 11:06:19;;;;;;;18.00;2.35;;;;;;;;;;5073176;28;20076;-62
2022/01/21 11:08:45;;;;;;;21.27;2.33;;;;;;;;;;5070411;28;20044;-61
2022/01/21 11:11:12;;;;;;;21.15;2.40;;;;;;;;;;5071135;28;20044;-61
2022/01/21 11:13:40;;;;;;;21.80;2.40;;;;;;;;;;5085460;28;20406;-64
2022/01/21 11:16:09;;;;;;;18.42;2.92;;;;;;;;;;5072408;28;20044;-62
2022/01/21 11:18:47;;;;;;;19.65;2.95;;;;;;;;;;5072418;28;20479;-62
2022/01/21 11:21:13;;;;;;;17.30;3.10;;;;;;;;;;5078128;28;20085;-63
2022/01/21 11:23:41;;;;;;;21.05;3.72;;;;;;;;;;5072588;28;20040;-62
2022/01/21 11:26:12;;;;;;;14.52;2.80;;;;;;;;;;5073177;28;20391;-61
2022/01/21 11:28:51;;;;;;;13.10;2.40;;;;;;;;;;5071547;28;20057;-62
2022/01/21 11:31:21;;;;;;;21.05;3.25;;;;;;;;;;5070281;28;20059;-61
2022/01/21 11:33:47;;;;;;;16.42;2.45;;;;;;;;;;5072282;28;20137;-61
2022/01/21 11:36:14;;;;;;;15.00;3.17;;;;;;;;;;5079586;28;20455;-62
2022/01/21 11:38:43;;;;;;;18.73;3.05;;;;;;;;;;5071405;28;20479;-61
2022/01/21 11:41:09;;;;;;;23.30;2.42;;;;;;;;;;5071785;28;20419;-61
2022/01/21 11:43:37;;;;;;;16.60;2.85;;;;;;;;;;5104299;28;20044;-61
2022/01/21 11:48:52;;;;;;;16.40;2.67;;;;;;;;;;5071880;28;20390;-61
2022/01/21 11:51:21;;;;;;;19.85;2.25;;;;;;;;;;5071920;28;20043;-61
2022/01/21 11:53:49;;;;;;;21.42;2.60;;;;;;;;;;5070599;28;20102;-61
2022/01/21 11:56:35;;;;;;;20.02;2.13;;;;;;;;;;5072000;28;20356;-61
2022/01/21 11:59:02;;;;;;;13.05;2.08;;;;;;;;;;5071797;28;20395;-61
2022/01/21 12:01:41;;;;;;;14.65;2.13;;;;;;;;;;5071508;28;20036;-61
2022/01/21 12:04:07;;;;;;;12.15;1.90;;;;;;;;;;5071784;28;20037;-61
2022/01/21 12:06:34;;;;;;;13.68;2.28;;;;;;;;;;5071631;28;20042;-61
2022/01/21 12:09:02;;;;;;;13.38;2.05;;;;;;;;;;5069438;28;20033;-61
2022/01/21 12:11:40;;;;;;;18.92;2.05;;;;;;;;;;5071168;28;20040;-61
2022/01/21 12:14:29;;;;;;;15.70;1.67;;;;;;;;;;5063710;28;20067;-62
2022/01/21 12:17:02;;;;;;;11.80;2.33;;;;;;;;;;5064825;28;20375;-63
2022/01/21 12:19:31;;;;;;;;;;;;;;;;;;5070795;28;20102;-63
2022/01/21 12:21:57;;;;;;;11.60;2.28;;;;;;;;;;5071632;28;19921;-62
2022/01/21 12:24:42;;;;;;;8.38;1.25;;;;;;;;;;5075666;28;20398;-64
2022/01/21 12:27:09;;;;;;;9.55;1.48;;;;;;;;;;5070427;28;20068;-63
2022/01/21 12:29:35;;;;;;;15.10;1.88;;;;;;;;;;5068518;28;20495;-62
2022/01/21 12:32:06;;;;;;;7.68;1.40;;;;;;;;;;5070968;28;20044;-64
2022/01/21 12:34:51;;;;;;;6.13;1.20;;;;;;;;;;5068825;28;20036;-63
2022/01/21 12:37:23;;;;;;;10.75;1.48;;;;;;;;;;5071094;28;20068;-62
2022/01/21 12:39:49;;;;;;;7.75;1.25;;;;;;;;;;5067704;28;20479;-62
2022/01/21 12:42:21;;;;;;;10.98;1.50;;;;;;;;;;5063221;28;20043;-62
2022/01/21 12:44:48;;;;;;;15.10;1.45;;;;;;;;;;5070109;28;20509;-62
2022/01/21 12:47:33;;;;;;;11.98;1.77;;;;;;;;;;5071357;28;20144;-64
2022/01/21 12:50:06;;;;;;;10.02;1.50;;;;;;;;;;5072872;28;20040;-62
2022/01/21 12:52:55;;;;;;;10.32;1.60;;;;;;;;;;5068862;28;20086;-62
2022/01/21 12:58:08;;;;;;;14.48;1.98;;;;;;;;;;5071060;28;20044;-64
2022/01/21 13:00:34;;;;;;;11.73;2.50;;;;;;;;;;5070389;28;20087;-64
2022/01/21 13:03:04;;;;;;;9.50;1.60;;;;;;;;;;5069880;28;20086;-63
2022/01/21 13:05:38;;;;;;;10.10;1.50;;;;;;;;;;5064606;28;20298;-64
2022/01/21 13:08:04;;;;;;;13.20;1.75;;;;;;;;;;5066856;28;20044;-62
2022/01/21 13:10:31;;;;;;;8.65;1.65;;;;;;;;;;5068191;28;20040;-64
2022/01/21 13:15:39;;;;;;;14.10;2.10;;;;;;;;;;5069603;28;20511;-63
2022/01/21 13:18:25;;;;;;;9.88;1.80;;;;;;;;;;5073201;28;20041;-64
2022/01/21 13:20:52;;;;;;;15.05;2.20;;;;;;;;;;5067409;28;20036;-64
2022/01/21 13:23:56;;;;;;;13.05;2.00;;;;;;;;;;5068607;28;20074;-64
2022/01/21 13:26:24;;;;;;;12.18;2.03;;;;;;;;;;5069662;28;20063;-64
2022/01/21 13:28:53;;;;;;;13.43;1.90;;;;;;;;;;5060778;28;20095;-64
2022/01/21 13:31:19;;;;;;;12.45;1.98;;;;;;;;;;5069637;28;20044;-64
2022/01/21 13:33:45;;;;;;;14.57;2.10;;;;;;;;;;5070260;28;20032;-64
2022/01/21 13:36:12;;;;;;;14.98;2.22;;;;;;;;;;5070960;28;20037;-64
2022/01/21 13:38:40;;;;;;;16.85;2.65;;;;;;;;;;5072029;28;20036;-62
2022/01/21 13:41:11;;;;;;;9.75;1.83;;;;;;;;;;5072657;28;20059;-63
2022/01/21 13:43:37;;;;;;;10.98;2.15;;;;;;;;;;5073539;28;20051;-63
2022/01/21 13:46:04;;;;;;;11.00;1.95;;;;;;;;;;5074707;28;20662;-64
2022/01/21 13:48:32;;;;;;;14.20;2.47;;;;;;;;;;5074873;28;20521;-62
2022/01/21 13:50:59;;;;;;;14.85;2.13;;;;;;;;;;5073022;28;20660;-62
2022/01/21 13:53:26;;;;;;;16.88;1.90;;;;;;;;;;5072881;28;20055;-62
2022/01/21 13:55:54;;;;;;;17.48;2.13;;;;;;;;;;5074506;28;20040;-62
2022/01/21 13:58:24;;;;;;;12.20;2.03;;;;;;;;;;5074133;28;20391;-64
2022/01/21 14:00:52;;;;;;;12.95;2.17;;;;;;;;;;5074681;28;20116;-64
2022/01/21 14:03:19;;;;;;;19.83;2.00;;;;;;;;;;5073355;28;20040;-63
2022/01/21 14:05:46;;;;;;;16.27;3.75;;;;;;;;;;5074531;28;20480;-64
2022/01/21 14:08:13;;;;;;;13.82;2.60;;;;;;;;;;5068811;28;20521;-63
2022/01/21 14:10:40;;;;;;;17.10;2.17;;;;;;;;;;5072934;28;20630;-63
2022/01/21 14:13:06;;;;;;;18.70;2.45;;;;;;;;;;5085919;28;20079;-62
2022/01/21 14:15:32;;;;;;;17.95;2.53;;;;;;;;;;5073508;28;20420;-63
2022/01/21 14:17:59;;;;;;;19.85;2.25;;;;;;;;;;5074118;28;20120;-61
2022/01/21 14:20:25;;;;;;;17.73;2.63;;;;;;;;;;5072863;28;20094;-61
2022/01/21 14:22:51;;;;;;;17.40;2.35;;;;;;;;;;5072313;28;20154;-62
2022/01/21 14:25:17;;;;;;;15.02;2.55;;;;;;;;;;5072092;28;20475;-64
2022/01/21 14:27:48;;;;;;;15.00;2.33;;;;;;;;;;5068464;28;20060;-63
2022/01/21 14:30:15;;;;;;;20.60;2.83;;;;;;;;;;5073250;28;20048;-63
2022/01/21 14:32:42;;;;;;;16.88;2.22;;;;;;;;;;5073336;28;20036;-64
2022/01/21 14:35:12;;;;;;;21.63;2.38;;;;;;;;;;5073344;28;20040;-62
2022/01/21 14:37:40;;;;;;;21.77;2.45;;;;;;;;;;5079008;28;20051;-63
2022/01/21 14:40:07;;;;;;;15.38;2.60;;;;;;;;;;5075917;28;20048;-62
2022/01/21 14:42:33;;;;;;;17.48;2.10;;;;;;;;;;5075323;28;20044;-63
2022/01/21 14:45:00;;;;;;;16.83;2.38;;;;;;;;;;5075401;28;20071;-63
2022/01/21 14:47:33;;;;;;;14.60;2.65;;;;;;;;;;5076116;28;20052;-63
2022/01/21 14:50:03;;;;;;;17.42;2.83;;;;;;;;;;5074973;28;20070;-63
2022/01/21 14:52:39;;;;;;;20.50;3.03;;;;;;;;;;5063677;28;20051;-65
2022/01/21 14:55:13;;;;;;;18.75;2.20;;;;;;;;;;5072295;28;20071;-62
2022/01/21 14:57:45;;;;;;;16.90;2.05;;;;;;;;;;5081488;28;20039;-64
2022/01/21 15:00:11;;;;;;;16.90;2.58;;;;;;;;;;5065652;28;20044;-64
2022/01/21 15:02:38;;;;;;;20.10;2.90;;;;;;;;;;5071879;28;20139;-62
2022/01/21 15:05:11;;;;;;;21.83;2.83;;;;;;;;;;5072865;28;20044;-62
2022/01/21 15:07:37;;;;;;;19.08;2.78;;;;;;;;;;5074453;28;20047;-63
2022/01/21 15:10:20;;;;;;;16.00;2.85;;;;;;;;;;5075113;28;20036;-62
2022/01/21 15:15:34;;;;;;;18.33;2.30;;;;;;;;;;5073852;28;20109;-62
2022/01/21 15:18:01;;;;;;;11.05;2.35;;;;;;;;;;5084037;28;20039;-63
2022/01/21 15:20:37;;;;;;;13.82;2.00;;;;;;;;;;5091515;28;20669;-63
2022/01/21 15:23:03;;;;;;;24.98;2.97;;;;;;;;;;5073229;28;20111;-63
2022/01/21 15:25:30;;;;;;;22.27;2.65;;;;;;;;;;5070244;28;20402;-64
2022/01/21 15:27:56;;;;;;;15.75;2.08;;;;;;;;;;5069640;28;20080;-64
2022/01/21 15:30:23;;;;;;;17.90;2.17;;;;;;;;;;5073254;28;20046;-64
2022/01/21 15:32:49;;;;;;;20.83;2.63;;;;;;;;;;5105693;28;20040;-64
2022/01/21 15:35:15;;;;;;;18.45;2.13;;;;;;;;;;5072587;28;20073;-63
2022/01/21 15:37:42;;;;;;;13.13;2.97;;;;;;;;;;5073265;28;20391;-63
2022/01/21 15:40:09;;;;;;;14.43;1.98;;;;;;;;;;5073250;28;20048;-63